createdAt,value
2024-02-19T00:00:39.018Z,101022.80
2024-02-19T00:03:28.409Z,101022.07
2024-02-19T00:05:57.303Z,101016.36
2024-02-19T00:08:25.176Z,101009.63
2024-02-19T00:10:53.102Z,101009.55
2024-02-19T00:13:21.549Z,101004.42
2024-02-19T00:15:49.772Z,100997.81
2024-02-19T00:18:19.675Z,100999.02
2024-02-19T00:20:48.074Z,100993.22
2024-02-19T00:23:16.033Z,100992.13
2024-02-19T00:25:43.934Z,100983.63
2024-02-19T00:28:12.627Z,100983.22
2024-02-19T00:30:41.043Z,100974.09
2024-02-19T00:33:09.785Z,100968.02
2024-02-19T00:35:37.948Z,100965.69
2024-02-19T00:38:06.107Z,100958.46
2024-02-19T00:40:34.296Z,100952.70
2024-02-19T00:43:02.267Z,100953.77
2024-02-19T00:45:30.366Z,100951.85
2024-02-19T00:47:58.877Z,100945.89
2024-02-19T00:50:27.143Z,100934.23
2024-02-19T00:52:55.056Z,100939.73
2024-02-19T00:55:23.242Z,100936.13
2024-02-19T00:57:51.398Z,100933.52
2024-02-19T01:00:19.560Z,100928.00
2024-02-19T01:02:47.555Z,100924.30
2024-02-19T01:05:16.281Z,100923.01
2024-02-19T01:07:44.235Z,100915.48
2024-02-19T01:10:12.599Z,100907.61
2024-02-19T01:12:40.678Z,100901.73
2024-02-19T01:15:09.224Z,100896.73
2024-02-19T01:17:37.101Z,100892.79
2024-02-19T01:20:07.183Z,100891.71
2024-02-19T01:22:35.226Z,100886.34
2024-02-19T01:25:03.762Z,100882.14
2024-02-19T01:27:31.865Z,100872.11
2024-02-19T01:29:59.898Z,100871.30
2024-02-19T01:32:28.308Z,100864.39
2024-02-19T01:34:56.809Z,100858.56
2024-02-19T01:37:25.287Z,100854.21
2024-02-19T01:39:54.312Z,100853.11
2024-02-19T01:42:24.977Z,100846.95
2024-02-19T01:44:52.918Z,100840.41
2024-02-19T01:47:21.039Z,100837.48
2024-02-19T01:49:49.131Z,100834.10
2024-02-19T01:52:18.005Z,100827.86
2024-02-19T01:54:49.155Z,100822.73
2024-02-19T01:57:17.824Z,100819.52
2024-02-19T01:59:45.903Z,100815.86
2024-02-19T02:02:14.061Z,100813.43
2024-02-19T02:04:43.438Z,100809.87
2024-02-19T02:07:11.511Z,100807.73
2024-02-19T02:09:39.947Z,100807.07
2024-02-19T02:12:08.623Z,100804.27
2024-02-19T02:14:44.467Z,100800.80
2024-02-19T02:17:12.370Z,100798.73
2024-02-19T02:19:45.252Z,100797.66
2024-02-19T02:22:14.768Z,100794.04
2024-02-19T02:24:42.966Z,100788.83
2024-02-19T02:27:11.391Z,100786.66
2024-02-19T02:29:40.552Z,100782.76
2024-02-19T02:32:08.760Z,100781.39
2024-02-19T02:34:36.806Z,100770.90
2024-02-19T02:37:04.905Z,100774.80
2024-02-19T02:39:33.178Z,100770.39
2024-02-19T02:42:01.139Z,100769.56
2024-02-19T02:44:29.106Z,100769.14
2024-02-19T02:46:57.053Z,100765.80
2024-02-19T02:49:25.035Z,100765.20
2024-02-19T02:51:53.517Z,100760.09
2024-02-19T02:54:21.621Z,100754.91
2024-02-19T02:56:49.786Z,100753.87
2024-02-19T02:59:17.920Z,100748.65
2024-02-19T03:01:49.481Z,100746.29
2024-02-19T03:04:17.947Z,100742.55
2024-02-19T03:06:46.365Z,100738.45
2024-02-19T03:09:14.332Z,100732.67
2024-02-19T03:11:42.353Z,100729.30
2024-02-19T03:14:15.181Z,100732.64
2024-02-19T03:16:43.801Z,100727.64
2024-02-19T03:19:14.814Z,100725.13
2024-02-19T03:21:42.902Z,100717.50
2024-02-19T03:24:10.868Z,100718.20
2024-02-19T03:26:41.582Z,100718.27
2024-02-19T03:29:14.333Z,100713.54
2024-02-19T03:31:44.425Z,100710.34
2024-02-19T03:34:12.761Z,100703.36
2024-02-19T03:36:48.060Z,100697.16
2024-02-19T03:39:16.050Z,100698.13
2024-02-19T03:41:44.108Z,100693.27
2024-02-19T03:44:12.554Z,100693.19
2024-02-19T03:46:40.798Z,100690.61
2024-02-19T03:49:09.123Z,100689.05
2024-02-19T03:51:37.241Z,100689.88
2024-02-19T03:54:05.247Z,100685.64
2024-02-19T03:56:33.241Z,100683.29
2024-02-19T03:59:01.255Z,100681.18
2024-02-19T04:01:29.525Z,100679.58
2024-02-19T04:03:57.613Z,100679.44
2024-02-19T04:06:25.870Z,100675.77
2024-02-19T04:08:53.809Z,100674.34
2024-02-19T04:11:21.889Z,100668.86
2024-02-19T04:13:49.820Z,100668.48
2024-02-19T04:16:17.866Z,100666.50
2024-02-19T04:18:46.284Z,100661.20
2024-02-19T04:21:14.406Z,100655.08
2024-02-19T04:23:42.320Z,100651.80
2024-02-19T04:26:10.358Z,100644.15
2024-02-19T04:28:38.821Z,100642.52
2024-02-19T04:31:06.906Z,100636.80
2024-02-19T04:33:34.920Z,100627.95
2024-02-19T04:36:03.085Z,100626.87
2024-02-19T04:38:31.130Z,100622.05
2024-02-19T04:40:58.955Z,100616.94
2024-02-19T04:43:26.837Z,100612.12
2024-02-19T04:45:54.869Z,100612.59
2024-02-19T04:48:22.975Z,100612.20
2024-02-19T04:50:51.290Z,100605.52
2024-02-19T04:53:20.008Z,100601.45
2024-02-19T04:55:48.170Z,100596.33
2024-02-19T04:58:17.731Z,100593.35
2024-02-19T05:00:47.075Z,100595.08
2024-02-19T05:03:18.143Z,100588.27
2024-02-19T05:05:47.328Z,100582.31
2024-02-19T05:08:15.313Z,100578.14
2024-02-19T05:10:43.215Z,100580.11
2024-02-19T05:13:11.474Z,100581.53
2024-02-19T05:15:39.479Z,100581.32
2024-02-19T05:18:07.736Z,100571.09
2024-02-19T05:20:38.786Z,100575.73
2024-02-19T05:23:06.662Z,100573.57
2024-02-19T05:25:34.547Z,100570.96
2024-02-19T05:28:02.885Z,100571.18
2024-02-19T05:30:31.506Z,100568.10
2024-02-19T05:32:59.494Z,100563.27
2024-02-19T05:35:27.748Z,100556.96
2024-02-19T05:37:56.957Z,100557.73
2024-02-19T05:40:24.962Z,100553.16
2024-02-19T05:42:53.426Z,100554.08
2024-02-19T05:45:21.404Z,100552.02
2024-02-19T05:47:52.305Z,100551.25
2024-02-19T05:50:20.411Z,100553.73
2024-02-19T05:52:48.365Z,100550.79
2024-02-19T05:55:16.403Z,100545.15
2024-02-19T05:57:44.371Z,100548.35
2024-02-19T06:00:15.362Z,100544.66
2024-02-19T06:02:44.326Z,100544.11
2024-02-19T06:05:12.781Z,100543.06
2024-02-19T06:07:40.799Z,100541.20
2024-02-19T06:10:09.177Z,100537.73
2024-02-19T06:12:37.178Z,100536.57
2024-02-19T06:15:05.736Z,100540.73
2024-02-19T06:17:34.166Z,100536.96
2024-02-19T06:20:02.729Z,100532.33
2024-02-19T06:22:30.990Z,100526.45
2024-02-19T06:24:59.155Z,100528.88
2024-02-19T06:27:29.769Z,100527.39
2024-02-19T06:29:57.637Z,100525.63
2024-02-19T06:32:25.553Z,100525.40
2024-02-19T06:34:53.531Z,100521.31
2024-02-19T06:37:21.585Z,100519.02
2024-02-19T06:39:49.562Z,100518.38
2024-02-19T06:42:19.303Z,100512.49
2024-02-19T06:44:47.191Z,100514.56
2024-02-19T06:47:15.158Z,100512.58
2024-02-19T06:49:43.167Z,100509.71
2024-02-19T06:52:11.284Z,100509.77
2024-02-19T06:54:39.167Z,100509.13
2024-02-19T06:57:07.115Z,100506.20
2024-02-19T06:59:34.961Z,100512.09
2024-02-19T07:02:06.949Z,100509.11
2024-02-19T07:04:38.652Z,100512.41
2024-02-19T07:07:10.585Z,100509.48
2024-02-19T07:09:39.796Z,100504.07
2024-02-19T07:12:08.648Z,100499.94
2024-02-19T07:14:36.819Z,100499.50
2024-02-19T07:17:05.028Z,100504.59
2024-02-19T07:19:33.055Z,100500.27
2024-02-19T07:22:01.137Z,100498.09
2024-02-19T07:24:29.895Z,100493.58
2024-02-19T07:26:58.822Z,100494.20
2024-02-19T07:29:27.783Z,100494.35
2024-02-19T07:31:55.868Z,100489.31
2024-02-19T07:34:24.534Z,100490.10
2024-02-19T07:36:54.222Z,100493.92
2024-02-19T07:39:22.388Z,100493.58
2024-02-19T07:41:50.271Z,100488.62
2024-02-19T07:44:18.109Z,100484.17
2024-02-19T07:46:46.215Z,100485.20
2024-02-19T07:49:14.433Z,100482.15
2024-02-19T07:51:42.677Z,100480.27
2024-02-19T07:54:10.857Z,100481.39
2024-02-19T07:56:38.940Z,100478.85
2024-02-19T07:59:07.145Z,100477.94
2024-02-19T08:01:35.296Z,100477.64
2024-02-19T08:04:06.226Z,100477.68
2024-02-19T08:06:34.476Z,100475.71
2024-02-19T08:09:05.928Z,100478.98
2024-02-19T08:11:34.008Z,100479.23
2024-02-19T08:14:02.218Z,100482.76
2024-02-19T08:16:30.420Z,100482.71
2024-02-19T08:18:58.670Z,100479.34
2024-02-19T08:21:27.927Z,100479.21
2024-02-19T08:23:55.995Z,100484.41
2024-02-19T08:26:23.829Z,100485.75
2024-02-19T08:28:52.012Z,100483.34
2024-02-19T08:31:20.068Z,100485.50
2024-02-19T08:33:48.080Z,100483.21
2024-02-19T08:36:16.082Z,100481.51
2024-02-19T08:38:46.251Z,100481.13
2024-02-19T08:41:14.906Z,100482.90
2024-02-19T08:43:42.908Z,100479.91
2024-02-19T08:46:10.877Z,100482.48
2024-02-19T08:48:39.128Z,100478.77
2024-02-19T08:51:07.352Z,100478.69
2024-02-19T08:53:36.092Z,100475.52
2024-02-19T08:56:04.214Z,100478.77
2024-02-19T08:58:32.705Z,100481.48
2024-02-19T09:01:01.191Z,100482.83
2024-02-19T09:03:29.213Z,100485.25
2024-02-19T09:05:57.311Z,100492.33
2024-02-19T09:08:25.564Z,100489.77
2024-02-19T09:10:55.110Z,100500.21
2024-02-19T09:13:23.125Z,100501.80
2024-02-19T09:15:51.411Z,100505.24
2024-02-19T09:18:19.479Z,100501.57
2024-02-19T09:20:47.443Z,100508.84
2024-02-19T09:23:17.935Z,100508.00
2024-02-19T09:25:45.965Z,100512.52
2024-02-19T09:28:13.936Z,100515.53
2024-02-19T09:30:42.071Z,100521.35
2024-02-19T09:33:10.370Z,100522.12
2024-02-19T09:35:38.533Z,100524.45
2024-02-19T09:38:06.925Z,100522.21
2024-02-19T09:40:37.689Z,100525.73
2024-02-19T09:43:07.242Z,100530.04
2024-02-19T09:45:37.641Z,100532.36
2024-02-19T09:48:07.486Z,100540.19
2024-02-19T09:50:36.144Z,100546.23
2024-02-19T09:53:14.913Z,100547.89
2024-02-19T09:55:42.827Z,100550.80
2024-02-19T09:58:11.129Z,100554.09
2024-02-19T10:00:39.266Z,100554.64
2024-02-19T10:03:08.752Z,100558.06
2024-02-19T10:05:36.757Z,100560.58
2024-02-19T10:08:10.466Z,100557.02
2024-02-19T10:10:39.710Z,100560.55
2024-02-19T10:13:11.352Z,100558.85
2024-02-19T10:15:40.046Z,100560.42
2024-02-19T10:18:21.797Z,100563.77
2024-02-19T10:20:52.187Z,100564.75
2024-02-19T10:23:23.996Z,100563.19
2024-02-19T10:25:53.167Z,100568.14
2024-02-19T10:28:25.546Z,100567.04
2024-02-19T10:30:53.635Z,100566.64
2024-02-19T10:33:22.877Z,100564.56
2024-02-19T10:35:51.260Z,100566.09
2024-02-19T10:38:19.419Z,100567.66
2024-02-19T10:40:47.433Z,100571.22
2024-02-19T10:43:15.839Z,100568.45
2024-02-19T10:45:44.046Z,100569.80
2024-02-19T10:48:12.308Z,100568.41
2024-02-19T10:50:42.332Z,100570.48
2024-02-19T10:53:11.945Z,100574.67
2024-02-19T10:55:49.932Z,100573.80
2024-02-19T10:58:26.878Z,100569.98
2024-02-19T11:04:33.929Z,100567.98
2024-02-19T11:07:02.478Z,100572.13
2024-02-19T11:09:59.714Z,100571.02
2024-02-19T11:12:27.896Z,100581.10
2024-02-19T11:14:56.414Z,100576.45
2024-02-19T11:17:25.042Z,100577.33
2024-02-19T11:19:56.643Z,100574.84
2024-02-19T11:22:31.641Z,100572.01
2024-02-19T11:24:59.720Z,100572.30
2024-02-19T11:27:27.816Z,100568.11
2024-02-19T11:30:01.500Z,100569.21
2024-02-19T11:32:29.770Z,100573.90
2024-02-19T11:34:57.677Z,100575.60
2024-02-19T11:37:25.810Z,100577.75
2024-02-19T11:39:53.865Z,100574.11
2024-02-19T11:42:23.322Z,100575.49
2024-02-19T11:44:51.416Z,100572.52
2024-02-19T11:47:19.606Z,100567.50
2024-02-19T11:49:48.771Z,100576.56
2024-02-19T11:52:17.270Z,100575.58
2024-02-19T11:54:45.618Z,100570.48
2024-02-19T11:57:15.536Z,100574.89
2024-02-19T11:59:46.138Z,100571.11
2024-02-19T12:02:14.272Z,100576.13
2024-02-19T12:04:42.443Z,100571.94
2024-02-19T12:07:11.659Z,100574.63
2024-02-19T12:09:41.024Z,100574.05
2024-02-19T12:12:09.698Z,100572.81
2024-02-19T12:14:37.844Z,100579.06
2024-02-19T12:17:07.194Z,100582.38
2024-02-19T12:19:36.636Z,100581.09
2024-02-19T12:52:34.098Z,100612.20
2024-02-19T12:55:02.084Z,100614.35
2024-02-19T12:57:30.187Z,100610.02
2024-02-19T12:59:58.841Z,100617.36
2024-02-19T13:02:27.251Z,100619.08
2024-02-19T13:04:55.384Z,100623.02
2024-02-19T13:07:24.015Z,100622.85
2024-02-19T13:09:51.993Z,100626.77
2024-02-19T13:12:20.858Z,100629.70
2024-02-19T13:14:49.097Z,100631.52
2024-02-19T13:17:23.166Z,100634.54
2024-02-19T13:19:58.322Z,100638.41
2024-02-19T13:22:28.027Z,100635.86
2024-02-19T13:24:55.964Z,100633.61
2024-02-19T13:27:24.050Z,100634.08
2024-02-19T13:29:51.881Z,100640.19
2024-02-19T13:32:19.776Z,100635.70
2024-02-19T13:34:48.509Z,100636.87
2024-02-19T13:37:19.627Z,100636.00
2024-02-19T13:39:47.841Z,100636.64
2024-02-19T13:42:16.217Z,100633.67
2024-02-19T13:44:44.225Z,100630.36
2024-02-19T13:47:12.410Z,100638.32
2024-02-19T13:49:40.478Z,100641.66
2024-02-19T13:52:09.283Z,100641.52
2024-02-19T13:54:37.505Z,100647.30
2024-02-19T13:57:05.877Z,100651.01
2024-02-19T13:59:33.906Z,100652.39
2024-02-19T14:02:01.902Z,100656.32
2024-02-19T14:04:30.554Z,100657.45
2024-02-19T14:06:58.887Z,100666.73
2024-02-19T14:09:27.064Z,100667.44
2024-02-19T14:11:55.128Z,100671.90
2024-02-19T14:14:23.308Z,100674.30
2024-02-19T14:16:51.393Z,100680.83
2024-02-19T14:19:20.005Z,100679.23
2024-02-19T14:21:48.989Z,100686.66
2024-02-19T14:24:17.941Z,100688.33
2024-02-19T14:26:46.449Z,100696.30
2024-02-19T14:29:14.789Z,100699.36
2024-02-19T14:31:42.795Z,100705.24
2024-02-19T14:34:11.843Z,100710.44
2024-02-19T14:36:40.760Z,100713.81
2024-02-19T14:39:11.113Z,100715.27
2024-02-19T14:41:39.379Z,100714.59
2024-02-19T14:44:07.427Z,100713.67
2024-02-19T14:46:37.464Z,100724.17
2024-02-19T14:49:07.856Z,100719.19
2024-02-19T14:51:36.345Z,100724.02
2024-02-19T14:54:05.446Z,100720.81
2024-02-19T14:56:33.731Z,100726.77
2024-02-19T14:59:02.557Z,100731.75
2024-02-19T15:01:30.556Z,100737.92
2024-02-19T15:03:58.796Z,100745.95
2024-02-19T15:06:27.062Z,100741.63
2024-02-19T15:08:55.085Z,100746.77
2024-02-19T15:11:23.373Z,100749.84
2024-02-19T15:13:51.286Z,100749.93
2024-02-19T15:16:19.580Z,100749.39
2024-02-19T15:18:48.317Z,100757.25
2024-02-19T15:21:16.472Z,100753.85
2024-02-19T15:23:44.424Z,100752.71
2024-02-19T15:26:12.652Z,100753.73
2024-02-19T15:28:40.669Z,100759.25
2024-02-19T15:31:08.928Z,100757.40
2024-02-19T15:33:36.987Z,100767.89
2024-02-19T15:36:05.282Z,100768.05
2024-02-19T15:38:33.493Z,100773.27
2024-02-19T15:41:04.343Z,100777.73
2024-02-19T15:43:32.425Z,100783.23
2024-02-19T15:46:01.162Z,100780.64
2024-02-19T15:48:29.203Z,100782.29
2024-02-19T15:50:58.777Z,100779.63
2024-02-19T15:53:30.073Z,100790.52
2024-02-19T15:56:01.375Z,100786.20
2024-02-19T15:58:30.359Z,100792.56
2024-02-19T16:00:58.802Z,100794.41
2024-02-19T16:03:29.590Z,100795.69
2024-02-19T16:06:02.539Z,100803.54
2024-02-19T16:08:33.682Z,100800.15
2024-02-19T16:11:05.269Z,100802.34
2024-02-19T16:13:37.707Z,100804.95
2024-02-19T16:16:12.184Z,100805.65
2024-02-19T16:18:41.312Z,100808.23
2024-02-19T16:21:09.663Z,100807.00
2024-02-19T16:23:38.475Z,100813.50
2024-02-19T16:26:09.090Z,100814.13
2024-02-19T16:28:40.280Z,100822.12
2024-02-19T16:31:10.715Z,100822.63
2024-02-19T16:33:40.545Z,100830.44
2024-02-19T16:36:09.409Z,100834.23
2024-02-19T16:38:42.583Z,100837.74
2024-02-19T16:41:11.306Z,100840.04
2024-02-19T16:43:39.449Z,100839.31
2024-02-19T16:46:10.219Z,100839.41
2024-02-19T16:48:40.493Z,100841.00
2024-02-19T16:51:13.191Z,100842.56
2024-02-19T16:53:42.305Z,100844.92
2024-02-19T16:56:12.310Z,100842.39
2024-02-19T16:58:40.772Z,100847.46
2024-02-19T17:01:11.414Z,100848.35
2024-02-19T17:03:40.995Z,100848.67
2024-02-19T17:06:09.581Z,100851.66
2024-02-19T17:08:38.304Z,100846.64
2024-02-19T17:11:06.789Z,100853.08
2024-02-19T17:13:38.115Z,100853.15
2024-02-19T17:16:06.838Z,100850.91
2024-02-19T17:18:35.245Z,100849.96
2024-02-19T17:21:05.319Z,100847.31
2024-02-19T17:23:33.708Z,100852.30
2024-02-19T17:26:02.274Z,100852.44
2024-02-19T17:28:30.269Z,100855.92
2024-02-19T17:30:58.598Z,100858.68
2024-02-19T17:33:26.668Z,100857.96
2024-02-19T17:35:54.767Z,100858.75
2024-02-19T17:38:22.908Z,100860.94
2024-02-19T17:40:51.281Z,100865.08
2024-02-19T17:43:19.566Z,100865.76
2024-02-19T17:45:47.835Z,100860.92
2024-02-19T17:48:16.179Z,100863.33
2024-02-19T17:50:47.492Z,100864.89
2024-02-19T17:53:15.460Z,100867.18
2024-02-19T17:55:44.009Z,100867.14
2024-02-19T17:58:13.800Z,100865.42
2024-02-19T18:00:43.193Z,100868.45
2024-02-19T18:03:11.500Z,100868.14
2024-02-19T18:05:39.890Z,100868.15
2024-02-19T18:08:08.386Z,100871.52
2024-02-19T18:10:36.656Z,100876.61
2024-02-19T18:13:06.054Z,100877.40
2024-02-19T18:15:34.696Z,100879.61
2024-02-19T18:18:04.728Z,100879.86
2024-02-19T18:20:34.440Z,100880.77
2024-02-19T18:23:06.185Z,100881.89
2024-02-19T18:25:34.695Z,100884.28
2024-02-19T18:28:03.474Z,100886.77
2024-02-19T18:30:31.854Z,100883.52
2024-02-19T18:33:02.442Z,100879.41
2024-02-19T18:35:35.393Z,100878.21
2024-02-19T18:38:05.511Z,100880.38
2024-02-19T18:40:33.486Z,100878.09
2024-02-19T18:43:01.953Z,100876.23
2024-02-19T18:45:30.031Z,100877.56
2024-02-19T18:47:57.990Z,100881.08
2024-02-19T18:50:25.966Z,100882.93
2024-02-19T18:52:53.846Z,100885.77
2024-02-19T18:55:25.739Z,100884.09
2024-02-19T18:57:53.820Z,100888.16
2024-02-19T19:00:22.193Z,100895.29
2024-02-19T19:02:50.101Z,100890.17
2024-02-19T19:05:18.306Z,100891.52
2024-02-19T19:07:46.315Z,100889.54
2024-02-19T19:10:14.372Z,100886.89
2024-02-19T19:12:42.700Z,100889.55
2024-02-19T19:15:10.980Z,100885.88
2024-02-19T19:17:38.955Z,100885.20
2024-02-19T19:20:10.937Z,100884.37
2024-02-19T19:22:39.501Z,100885.33
2024-02-19T19:25:08.393Z,100883.72
2024-02-19T19:27:36.415Z,100885.20
2024-02-19T19:30:05.961Z,100881.11
2024-02-19T19:32:36.285Z,100885.84
2024-02-19T19:35:05.409Z,100885.42
2024-02-19T19:37:33.631Z,100890.61
2024-02-19T19:40:05.451Z,100894.57
2024-02-19T19:42:34.006Z,100896.21
2024-02-19T19:45:02.462Z,100895.70
2024-02-19T19:47:32.712Z,100891.73
2024-02-19T19:50:02.358Z,100894.10
2024-02-19T19:52:35.335Z,100894.64
2024-02-19T19:55:03.939Z,100897.41
2024-02-19T19:57:32.935Z,100893.70
2024-02-19T20:00:01.252Z,100900.79
2024-02-19T20:02:29.628Z,100899.62
2024-02-19T20:04:57.754Z,100899.03
2024-02-19T20:07:27.205Z,100895.33
2024-02-19T20:09:55.836Z,100897.43
2024-02-19T20:12:23.996Z,100900.08
2024-02-19T20:14:54.012Z,100902.98
2024-02-19T20:17:25.187Z,100901.41
2024-02-19T20:19:53.638Z,100906.88
2024-02-19T20:22:21.967Z,100907.02
2024-02-19T20:24:50.238Z,100906.40
2024-02-19T20:27:18.611Z,100902.11
2024-02-19T20:29:46.686Z,100901.86
2024-02-19T20:32:15.739Z,100901.50
2024-02-19T20:34:46.256Z,100898.92
2024-02-19T20:37:16.290Z,100898.88
2024-02-19T20:39:46.429Z,100898.20
2024-02-19T20:42:16.339Z,100900.04
2024-02-19T20:44:46.998Z,100896.95
2024-02-19T20:47:15.143Z,100896.91
2024-02-19T20:49:45.926Z,100899.16
2024-02-19T20:52:14.845Z,100897.70
2024-02-19T20:54:42.887Z,100892.84
2024-02-19T20:57:10.825Z,100896.21
2024-02-19T20:59:39.598Z,100896.61
2024-02-19T21:02:09.233Z,100896.67
2024-02-19T21:04:38.234Z,100896.09
2024-02-19T21:07:06.350Z,100900.19
2024-02-19T21:09:36.484Z,100900.11
2024-02-19T21:12:04.791Z,100898.80
2024-02-19T21:14:33.013Z,100904.89
2024-02-19T21:17:01.279Z,100905.19
2024-02-19T21:19:29.223Z,100904.46
2024-02-19T21:21:57.344Z,100907.22
2024-02-19T21:24:25.437Z,100909.95
2024-02-19T21:26:55.639Z,100905.52
2024-02-19T21:29:27.625Z,100902.79
2024-02-19T21:31:59.246Z,100901.63
2024-02-19T21:34:27.305Z,100895.89
2024-02-19T21:36:57.972Z,100899.28
2024-02-19T21:39:26.807Z,100894.38
2024-02-19T21:41:54.995Z,100892.64
2024-02-19T21:44:25.042Z,100891.84
2024-02-19T21:46:53.977Z,100897.69
2024-02-19T21:49:22.132Z,100894.61
2024-02-19T21:51:50.323Z,100902.06
2024-02-19T21:54:18.607Z,100894.75
2024-02-19T21:56:46.645Z,100901.44
2024-02-19T21:59:15.312Z,100904.64
2024-02-19T22:01:43.403Z,100909.23
2024-02-19T22:04:11.626Z,100906.76
2024-02-19T22:06:41.727Z,100905.92
2024-02-19T22:09:09.804Z,100907.39
2024-02-19T22:11:38.212Z,100906.00
2024-02-19T22:14:06.537Z,100902.70
2024-02-19T22:16:34.965Z,100901.21
2024-02-19T22:19:03.002Z,100896.86
2024-02-19T22:21:32.127Z,100892.68
2024-02-19T22:24:01.563Z,100896.74
2024-02-19T22:26:29.857Z,100892.36
2024-02-19T22:28:58.371Z,100889.30
2024-02-19T22:31:26.943Z,100888.33
2024-02-19T22:33:55.460Z,100887.45
2024-02-19T22:36:23.737Z,100886.69
2024-02-19T22:38:52.059Z,100884.52
2024-02-19T22:41:20.351Z,100887.30
2024-02-19T22:43:48.593Z,100882.08
2024-02-19T22:46:16.811Z,100877.10
2024-02-19T22:48:44.973Z,100875.71
2024-02-19T22:51:13.110Z,100872.64
2024-02-19T22:53:41.277Z,100869.77
2024-02-19T22:56:10.093Z,100866.36
2024-02-19T22:58:38.615Z,100868.70
2024-02-19T23:01:06.976Z,100868.55
2024-02-19T23:03:36.088Z,100868.95
2024-02-19T23:06:04.862Z,100871.83
2024-02-19T23:08:33.155Z,100871.16
2024-02-19T23:11:01.119Z,100876.21
2024-02-19T23:13:29.041Z,100878.83
2024-02-19T23:15:57.708Z,100880.64
2024-02-19T23:18:27.312Z,100882.33
2024-02-19T23:20:55.327Z,100882.89
2024-02-19T23:23:23.387Z,100881.47
2024-02-19T23:25:54.407Z,100880.34
2024-02-19T23:28:25.777Z,100878.13
2024-02-19T23:30:54.266Z,100877.27
2024-02-19T23:33:22.353Z,100875.55
2024-02-19T23:35:50.285Z,100881.88
2024-02-19T23:38:24.705Z,100879.55
2024-02-19T23:40:52.951Z,100881.55
2024-02-19T23:43:20.946Z,100880.89
2024-02-19T23:45:49.620Z,100882.58
2024-02-19T23:48:18.108Z,100882.77
2024-02-19T23:50:46.125Z,100881.30
2024-02-19T23:53:16.541Z,100880.00
2024-02-19T23:55:45.122Z,100880.77
2024-02-19T23:58:13.666Z,100873.79
